Hlavní strana
METAR-TAF:

METAR-TAF

Letiště :

Valdosta Regional Airport

Valdosta, Georgie, Spojené státy americké

zeměpisná šířka: 30-47N, zeměpisná délka: 083-17W, výška: 62 m

Aktuální stav počasí

Zpráva byla vytvořena před 1 hodinou a 0 minutami, v 10:53 UTC
Bezvětří
Teplota 22°C
Vlhkost vzduchu 83%
Tlak 1021 hPa
Viditelnost: 16.1 km
Jasno

METAR: KVLD 261053Z 00000KT 10SM CLR 22/19 A3015 RMK AO2 SLP214 T02220194

Čas: 07:53 (11:53 UTC)

Předpověď počasí

Zpráva byla vytvořena před 33 minutami, v 11:20 UTC
Předpověď platná od 26 v 12 UTC do 27 v 12 UTC
Jihojihozápadní vítr 4 kt
Viditelnost: 10 km
Polojasno ve výšce 7000 ft

TAF: KVLD 261120Z 2612/2712 21004KT P6SM SCT070

Stav a předpovědi počasí z více než 4 000 letišť (zprávy METAR a TAF).

Červené a žluté tečky na mapě představují dostupné meteorologické stanice.

Když kurzor umístíte na tečku, zobrazí se název stanice.

Pak kliknutím zobrazíte stav a předpověď počasí.

Chcete-li změnit mapu, kliknutím na zelené tlačítko se znaménkem +mapu přiblížíte, kliknutím na zelené tlačítko se znaménkem – mapu oddálíte a kliknutím na zelené šipky přejdete na sousední mapy.


METAR-TAF: